Time;durP1;ratioP1;P1;durP2;ratioP2;P2;SDS_P1;SDS_P2;PMS_P1;PMS_P2;Temp;Humidity;BMP_temperature;BMP_pressure;BME280_temperature;BME280_humidity;BME280_pressure;Samples;Min_cycle;Max_cycle;Signal;HPM_P1;HPM_P2
2021/04/10 00:00:19;;;;;;;25.95;12.88;;;;;;;8.58;48.27;100090.48;1698671;83;27399;-82
2021/04/10 00:02:46;;;;;;;28.12;13.32;;;;;;;8.61;48.18;100087.56;1670735;83;21205;-79
2021/04/10 00:05:14;;;;;;;;;;;;;;;8.56;48.22;100080.59;1699791;83;21221;-79
2021/04/10 00:07:44;;;;;;;24.90;12.25;;;;;;;8.55;48.43;100084.69;1691928;83;20317;-80
2021/04/10 00:10:13;;;;;;;23.70;12.60;;;;;;;8.52;48.53;100080.53;1699738;81;21205;-78
2021/04/10 00:12:42;;;;;;;26.23;13.53;;;;;;;8.55;48.39;100080.23;1697890;81;21186;-77
2021/04/10 00:15:11;;;;;;;25.55;13.40;;;;;;;8.53;48.59;100076.08;1703540;81;21237;-85
2021/04/10 00:17:39;;;;;;;28.17;13.40;;;;;;;8.55;48.45;100074.98;1671086;83;21253;-78
2021/04/10 00:20:09;;;;;;;28.85;13.62;;;;;;;8.49;48.67;100066.34;1698987;81;21619;-83
2021/04/10 00:22:34;;;;;;;27.45;13.05;;;;;;;8.51;48.55;100072.28;1703374;83;21249;-79
2021/04/10 00:25:04;;;;;;;27.40;14.00;;;;;;;8.49;48.61;100065.03;1706216;81;27144;-84
2021/04/10 00:27:30;;;;;;;26.68;13.25;;;;;;;8.47;48.60;100061.72;1675017;83;21716;-79
2021/04/10 00:29:57;;;;;;;25.90;13.30;;;;;;;8.50;48.58;100060.12;1699081;83;27685;-80
2021/04/10 00:32:26;;;;;;;;;;;;;;;8.49;48.57;100059.77;1705170;81;21031;-82
2021/04/10 00:34:53;;;;;;;23.50;12.63;;;;;;;8.46;48.69;100061.87;1701158;83;20605;-77
2021/04/10 00:37:18;;;;;;;25.60;12.60;;;;;;;8.44;48.89;100064.64;1707274;81;21180;-77
2021/04/10 00:39:44;;;;;;;25.80;12.93;;;;;;;8.42;49.03;100054.70;1699377;81;21774;-81
2021/04/10 00:42:10;;;;;;;24.43;13.18;;;;;;;8.39;49.16;100054.52;1706539;83;27708;-77
2021/04/10 00:44:36;;;;;;;26.33;12.55;;;;;;;8.38;49.13;100054.66;1674051;83;21238;-78
2021/04/10 00:47:03;;;;;;;25.97;12.85;;;;;;;8.43;49.26;100057.68;1705363;81;28448;-77
2021/04/10 00:49:31;;;;;;;28.92;13.62;;;;;;;8.58;48.86;100060.21;1705330;83;21178;-78
2021/04/10 00:51:57;;;;;;;28.12;13.38;;;;;;;8.55;48.84;100060.50;1701257;83;21241;-77
2021/04/10 00:54:26;;;;;;;29.12;13.50;;;;;;;8.57;48.86;100062.98;1701617;83;21209;-82
2021/04/10 00:56:54;;;;;;;25.12;12.73;;;;;;;8.61;48.65;100061.23;1698888;83;21190;-78
2021/04/10 00:59:21;;;;;;;;;;;;;;;8.52;48.59;100062.11;1727897;81;21202;-84
2021/04/10 01:01:47;;;;;;;;;;;;;;;8.55;48.58;100057.87;1697591;81;20304;-78
2021/04/10 01:04:13;;;;;;;25.27;13.03;;;;;;;8.59;48.56;100050.03;1700147;83;22174;-78
2021/04/10 01:06:39;;;;;;;27.82;13.28;;;;;;;8.62;48.47;100048.89;1703405;81;27662;-77
2021/04/10 01:09:07;;;;;;;26.33;12.90;;;;;;;8.60;48.46;100046.91;1704924;81;25623;-84
2021/04/10 01:12:04;;;;;;;28.27;13.70;;;;;;;8.56;48.56;100047.69;1705834;81;21240;-82
2021/04/10 01:14:52;;;;;;;28.10;13.90;;;;;;;8.58;48.54;100039.66;1716868;80;21174;-77
2021/04/10 01:17:27;;;;;;;25.10;13.18;;;;;;;8.58;48.43;100037.84;1696702;83;21473;-82
2021/04/10 01:20:18;;;;;;;27.95;13.95;;;;;;;8.54;48.65;100039.09;1701163;83;21227;-77
2021/04/10 01:23:21;;;;;;;25.70;12.68;;;;;;;8.57;48.52;100037.48;1689271;83;21641;-78
2021/04/10 01:26:14;;;;;;;26.77;13.32;;;;;;;8.53;48.62;100037.92;1699827;83;21191;-78
2021/04/10 01:29:04;;;;;;;27.98;13.85;;;;;;;8.52;48.58;100033.66;1664230;83;21203;-79
2021/04/10 01:31:37;;;;;;;26.42;13.25;;;;;;;8.49;48.75;100037.89;1674983;83;21365;-77
2021/04/10 01:34:07;;;;;;;29.80;13.45;;;;;;;8.53;48.72;100034.83;1704169;83;21187;-78
2021/04/10 01:36:36;;;;;;;27.20;13.32;;;;;;;8.50;48.70;100037.75;1694808;81;21206;-79
2021/04/10 01:39:03;;;;;;;27.42;13.20;;;;;;;8.50;48.56;100028.53;1672402;83;21202;-77
2021/04/10 01:41:29;;;;;;;26.80;13.30;;;;;;;8.46;48.74;100032.92;1710111;81;21221;-78
2021/04/10 01:43:55;;;;;;;26.12;13.83;;;;;;;8.46;48.88;100037.69;1700631;83;21936;-82
2021/04/10 01:46:23;;;;;;;25.50;13.13;;;;;;;8.48;48.69;100034.41;1665744;83;21263;-78
2021/04/10 01:48:49;;;;;;;;;;;;;;;8.45;48.65;100037.33;1669304;83;21648;-78
2021/04/10 01:51:15;;;;;;;26.70;12.27;;;;;;;8.44;48.63;100037.02;1705974;81;20319;-82
2021/04/10 01:53:41;;;;;;;26.33;13.25;;;;;;;8.35;49.16;100036.53;1697882;83;26828;-80
2021/04/10 01:56:10;;;;;;;26.02;13.10;;;;;;;8.23;49.23;100036.72;1640044;83;21363;-78
2021/04/10 01:58:36;;;;;;;26.00;13.18;;;;;;;8.16;49.96;100037.44;1697490;83;21083;-79
2021/04/10 02:01:05;;;;;;;26.05;13.22;;;;;;;8.17;49.76;100036.44;1701910;83;21261;-78
2021/04/10 02:03:34;;;;;;;27.50;13.65;;;;;;;8.21;49.59;100039.14;1697743;81;21233;-77
2021/04/10 02:06:04;;;;;;;30.70;14.45;;;;;;;8.12;49.57;100031.61;1692684;83;21193;-77
2021/04/10 02:08:33;;;;;;;29.00;14.10;;;;;;;8.17;49.64;100033.81;1670105;83;21249;-79
2021/04/10 02:11:02;;;;;;;26.90;13.43;;;;;;;8.18;49.75;100036.30;1702952;82;21175;-79
2021/04/10 02:13:29;;;;;;;32.00;13.48;;;;;;;8.18;49.54;100033.67;1661436;83;21189;-82
2021/04/10 02:15:55;;;;;;;28.60;14.15;;;;;;;8.18;49.45;100031.04;1696186;83;21205;-81
2021/04/10 02:18:21;;;;;;;28.67;14.53;;;;;;;8.15;49.73;100030.51;1699307;81;27166;-77
2021/04/10 02:20:50;;;;;;;28.73;13.65;;;;;;;8.14;49.57;100033.63;1711034;81;22234;-77
2021/04/10 02:23:20;;;;;;;27.05;13.68;;;;;;;8.16;49.57;100037.44;1700863;81;21506;-79
2021/04/10 02:25:47;;;;;;;27.62;14.15;;;;;;;8.20;49.42;100034.38;1667976;83;21609;-81
2021/04/10 02:28:14;;;;;;;;;;;;;;;8.19;49.44;100028.77;1670289;83;21419;-78
2021/04/10 02:30:42;;;;;;;26.55;13.53;;;;;;;8.20;49.40;100030.43;1704588;83;20310;-81
2021/04/10 02:33:13;;;;;;;;;;;;;;;8.14;49.62;100038.89;1704192;81;21198;-77
2021/04/10 02:35:56;;;;;;;25.85;13.28;;;;;;;8.16;49.56;100038.25;1725329;81;20582;-78
2021/04/10 02:38:25;;;;;;;26.52;13.25;;;;;;;8.18;49.30;100034.98;1701714;81;21226;-77
2021/04/10 02:40:56;;;;;;;26.52;13.72;;;;;;;8.15;49.34;100035.27;1699714;83;21210;-77
2021/04/10 02:43:25;;;;;;;26.35;13.70;;;;;;;8.13;49.43;100040.35;1672201;83;21135;-79
2021/04/10 02:45:52;;;;;;;27.37;14.40;;;;;;;8.12;49.51;100038.69;1699020;83;22299;-77
2021/04/10 02:48:24;;;;;;;30.17;14.53;;;;;;;8.03;49.63;100032.47;1695977;83;21173;-77
2021/04/10 02:50:54;;;;;;;24.85;13.55;;;;;;;7.95;49.83;100034.98;1703636;83;21201;-77
2021/04/10 02:53:22;;;;;;;26.37;14.10;;;;;;;7.91;49.91;100033.95;1661254;83;21210;-77
2021/04/10 02:55:57;;;;;;;26.25;13.00;;;;;;;7.91;49.92;100029.19;1703185;83;21193;-80
2021/04/10 02:58:24;;;;;;;27.07;14.20;;;;;;;7.94;49.80;100026.75;1688935;83;21216;-77
2021/04/10 03:00:52;;;;;;;27.05;14.03;;;;;;;7.81;50.25;100023.94;1668379;81;21524;-78
2021/04/10 03:03:18;;;;;;;27.17;14.38;;;;;;;7.72;50.45;100033.52;1648129;83;22039;-77
2021/04/10 03:05:45;;;;;;;30.92;13.93;;;;;;;7.62;50.58;100025.30;1696740;81;28845;-78
2021/04/10 03:08:17;;;;;;;28.27;14.28;;;;;;;7.57;50.88;100028.80;1690420;83;21236;-82
2021/04/10 03:10:46;;;;;;;31.80;14.28;;;;;;;7.66;50.73;100035.85;1668404;83;21249;-78
2021/04/10 03:13:16;;;;;;;30.43;14.18;;;;;;;7.72;50.53;100024.78;1669283;83;21323;-84
2021/04/10 03:15:42;;;;;;;28.10;14.43;;;;;;;7.60;50.94;100024.58;1673702;83;21201;-77
2021/04/10 03:18:10;;;;;;;28.73;14.20;;;;;;;7.58;51.30;100026.04;1704391;83;28429;-77
2021/04/10 03:20:37;;;;;;;29.00;14.47;;;;;;;7.55;51.37;100017.97;1698206;81;21155;-81
2021/04/10 03:23:06;;;;;;;29.67;14.20;;;;;;;7.53;51.30;100008.06;1700147;83;21206;-78
2021/04/10 03:25:31;;;;;;;29.75;14.60;;;;;;;7.53;51.37;100020.38;1708448;83;21209;-81
2021/04/10 03:27:59;;;;;;;26.82;14.65;;;;;;;7.65;51.02;100018.45;1703942;83;25360;-77
2021/04/10 03:30:25;;;;;;;;;;;;;;;7.68;50.89;100013.73;1702163;83;21217;-77
2021/04/10 03:32:52;;;;;;;29.10;13.80;;;;;;;7.66;50.99;100006.48;1698163;81;20244;-77
2021/04/10 03:35:26;;;;;;;31.10;15.00;;;;;;;7.62;51.05;100006.90;1690191;83;22600;-77
2021/04/10 03:37:49;;;;;;;30.90;14.18;;;;;;;7.50;51.27;100007.06;1674603;83;21651;-78
2021/04/10 03:40:16;;;;;;;27.87;14.13;;;;;;;7.59;51.23;100019.83;1703647;81;25914;-76
2021/04/10 03:42:45;;;;;;;26.45;13.22;;;;;;;7.59;51.26;100017.69;1672744;83;21627;-77
2021/04/10 03:45:19;;;;;;;32.58;15.03;;;;;;;7.44;51.69;100017.27;1704782;83;21307;-77
2021/04/10 03:47:47;;;;;;;29.05;14.10;;;;;;;7.53;51.46;100015.95;1703487;83;21222;-80
2021/04/10 03:50:14;;;;;;;27.37;13.65;;;;;;;7.41;51.85;100016.23;1698555;81;21276;-78
2021/04/10 03:52:40;;;;;;;30.95;14.35;;;;;;;7.35;51.95;100018.95;1667311;83;21244;-78
2021/04/10 03:55:09;;;;;;;27.93;13.88;;;;;;;7.36;51.93;100015.34;1695997;83;21213;-81
2021/04/10 03:57:37;;;;;;;27.95;14.23;;;;;;;7.37;52.03;100015.70;1705159;81;21210;-80
2021/04/10 04:00:07;;;;;;;28.92;14.85;;;;;;;7.34;52.03;100015.97;1702587;83;21213;-78
2021/04/10 04:02:32;;;;;;;26.95;13.75;;;;;;;7.26;52.36;100018.47;1701150;81;21209;-79
2021/04/10 04:05:01;;;;;;;29.10;13.93;;;;;;;7.22;52.40;100013.95;1694953;83;21646;-78
2021/04/10 04:07:29;;;;;;;27.32;13.98;;;;;;;7.27;52.36;100017.48;1698735;83;21178;-78
2021/04/10 04:09:55;;;;;;;27.90;14.07;;;;;;;7.23;52.55;100018.75;1698895;83;21666;-81
2021/04/10 04:12:21;;;;;;;25.20;13.08;;;;;;;7.26;52.44;100022.41;1670224;83;21961;-77
2021/04/10 04:14:49;;;;;;;29.25;14.15;;;;;;;7.28;52.44;100019.97;1704892;83;27134;-80
2021/04/10 04:17:15;;;;;;;25.80;13.65;;;;;;;7.31;52.43;100026.76;1689932;83;21225;-77
2021/04/10 04:19:43;;;;;;;25.95;13.93;;;;;;;7.36;52.24;100033.27;1697772;81;28333;-79
2021/04/10 04:22:10;;;;;;;30.25;14.35;;;;;;;7.28;52.54;100032.28;1702461;83;21527;-81
2021/04/10 04:24:36;;;;;;;27.90;13.90;;;;;;;7.32;52.43;100034.99;1688110;83;21668;-77
2021/04/10 04:27:03;;;;;;;29.70;13.95;;;;;;;7.32;52.46;100046.81;1692416;83;27530;-77
2021/04/10 04:29:31;;;;;;;;;;;;;;;7.35;52.44;100051.80;1690349;83;21302;-78
2021/04/10 04:32:00;;;;;;;26.68;13.55;;;;;;;7.39;52.44;100049.22;1688710;83;20238;-78
2021/04/10 04:34:26;;;;;;;29.10;13.70;;;;;;;7.41;52.51;100051.70;1695733;83;22208;-83
2021/04/10 04:36:52;;;;;;;27.83;13.53;;;;;;;7.30;52.73;100054.83;1697708;83;21944;-80
2021/04/10 04:39:18;;;;;;;29.82;14.38;;;;;;;7.27;52.94;100054.25;1693918;81;25886;-80
2021/04/10 04:41:43;;;;;;;27.77;14.27;;;;;;;7.32;52.80;100052.06;1691509;83;24767;-82
2021/04/10 04:44:11;;;;;;;27.13;13.78;;;;;;;7.32;52.97;100049.44;1663947;83;28432;-80
2021/04/10 04:46:36;;;;;;;28.98;14.43;;;;;;;7.28;52.89;100055.92;1663761;83;21206;-80
2021/04/10 04:49:04;;;;;;;30.00;13.93;;;;;;;7.41;52.64;100048.62;1684731;83;22547;-80
2021/04/10 04:51:29;;;;;;;27.37;13.58;;;;;;;7.42;52.62;100049.44;1694808;83;21185;-80
2021/04/10 04:53:56;;;;;;;28.32;14.13;;;;;;;7.51;52.50;100049.42;1692889;83;25288;-82
2021/04/10 04:56:24;;;;;;;24.92;13.28;;;;;;;7.52;52.50;100060.29;1684599;83;21237;-81
2021/04/10 04:58:50;;;;;;;28.75;14.23;;;;;;;7.50;52.48;100059.61;1691576;83;26671;-82
2021/04/10 05:01:18;;;;;;;31.73;14.28;;;;;;;7.37;52.85;100060.36;1686362;83;22113;-83
2021/04/10 05:03:45;;;;;;;25.97;13.15;;;;;;;7.41;52.93;100059.12;1686106;83;21508;-80
2021/04/10 05:06:11;;;;;;;;;;;;;;;7.48;52.76;100061.52;1688841;83;21239;-80
2021/04/10 05:08:38;;;;;;;27.95;13.40;;;;;;;7.57;52.60;100061.19;1691594;83;20206;-81
2021/04/10 05:11:04;;;;;;;;;;;;;;;7.55;52.61;100062.64;1695349;83;22364;-81
2021/04/10 05:13:31;;;;;;;28.07;13.95;;;;;;;7.45;52.96;100072.31;1688826;83;21196;-81
2021/04/10 05:15:57;;;;;;;27.67;13.90;;;;;;;7.62;52.73;100068.16;1686646;83;21210;-82
2021/04/10 05:18:23;;;;;;;28.23;13.58;;;;;;;7.62;52.48;100066.03;1686148;83;21230;-83
2021/04/10 05:20:49;;;;;;;26.27;13.88;;;;;;;7.82;52.13;100066.35;1635605;83;28841;-80
2021/04/10 05:23:21;;;;;;;26.93;14.30;;;;;;;7.88;51.94;100060.53;1690715;83;26757;-81
2021/04/10 05:25:48;;;;;;;28.62;14.03;;;;;;;7.81;52.04;100060.73;1698027;81;21228;-79
2021/04/10 05:28:14;;;;;;;26.77;13.07;;;;;;;7.98;51.85;100063.63;1703809;83;22231;-84
2021/04/10 05:30:41;;;;;;;26.42;13.72;;;;;;;7.95;51.53;100056.02;1703931;83;21201;-80
2021/04/10 05:33:07;;;;;;;28.17;13.13;;;;;;;8.01;51.59;100069.42;1703416;83;28342;-80
2021/04/10 05:35:35;;;;;;;26.17;13.43;;;;;;;7.99;51.52;100071.37;1697589;83;21191;-81
2021/04/10 05:38:03;;;;;;;;;;;;;;;7.94;51.68;100070.13;1707246;83;21229;-82
2021/04/10 05:40:28;;;;;;;29.77;13.28;;;;;;;8.01;51.65;100079.95;1704276;83;20223;-83
2021/04/10 05:42:55;;;;;;;25.23;13.05;;;;;;;8.22;51.52;100069.75;1700692;83;25352;-81
2021/04/10 05:45:24;;;;;;;31.57;14.63;;;;;;;8.45;51.21;100080.75;1696309;81;21711;-81
2021/04/10 05:47:49;;;;;;;27.37;13.62;;;;;;;8.41;50.93;100085.95;1713273;81;21194;-82
2021/04/10 05:50:15;;;;;;;30.02;14.15;;;;;;;8.43;51.00;100086.62;1703749;81;22161;-82
2021/04/10 05:52:47;;;;;;;27.40;13.55;;;;;;;8.47;50.97;100093.30;1689649;83;27051;-84
2021/04/10 05:55:14;;;;;;;26.87;14.00;;;;;;;8.56;50.84;100096.39;1697662;83;21632;-81
2021/04/10 05:57:40;;;;;;;30.00;14.05;;;;;;;8.57;50.88;100099.34;1697749;82;28437;-80
2021/04/10 06:00:06;;;;;;;25.55;14.30;;;;;;;8.69;50.97;100111.02;1706739;83;21226;-81
2021/04/10 06:02:34;;;;;;;29.80;13.87;;;;;;;8.77;50.60;100109.80;1703247;83;22119;-80
2021/04/10 06:05:02;;;;;;;25.80;13.80;;;;;;;8.89;50.50;100104.69;1666416;83;21163;-81
2021/04/10 06:07:29;;;;;;;31.23;13.25;;;;;;;8.96;50.33;100104.45;1699034;83;21173;-82
2021/04/10 06:09:55;;;;;;;29.45;13.03;;;;;;;9.06;50.36;100110.12;1698136;83;21518;-81
2021/04/10 06:12:21;;;;;;;23.70;12.78;;;;;;;9.14;50.16;100109.74;1707584;81;26732;-81
2021/04/10 06:14:47;;;;;;;26.95;13.55;;;;;;;9.16;49.82;100117.50;1696041;83;21301;-82
2021/04/10 06:17:15;;;;;;;28.80;13.95;;;;;;;9.17;49.84;100121.80;1700944;83;27064;-82
2021/04/10 06:19:44;;;;;;;29.92;13.22;;;;;;;9.06;50.11;100126.78;1702139;83;21165;-82
2021/04/10 06:22:13;;;;;;;29.63;13.68;;;;;;;9.09;50.01;100121.22;1696488;83;21216;-81
2021/04/10 06:24:39;;;;;;;27.80;14.13;;;;;;;9.23;49.93;100126.48;1696288;82;21174;-82
2021/04/10 06:27:06;;;;;;;28.87;14.43;;;;;;;9.28;49.89;100126.04;1711124;82;22064;-80
2021/04/10 06:29:36;;;;;;;26.52;14.05;;;;;;;9.38;49.73;100126.78;1708072;82;21656;-80
2021/04/10 06:32:04;;;;;;;27.93;13.60;;;;;;;9.53;49.50;100129.25;1711471;82;21209;-81
2021/04/10 06:34:30;;;;;;;26.85;13.80;;;;;;;9.63;49.50;100127.03;1709887;82;21216;-82
2021/04/10 06:36:57;;;;;;;32.88;14.83;;;;;;;9.79;48.87;100126.34;1711615;82;26716;-81
2021/04/10 06:39:24;;;;;;;30.88;14.45;;;;;;;9.76;48.97;100138.04;1702043;81;21711;-81
2021/04/10 06:41:50;;;;;;;30.92;14.75;;;;;;;9.92;48.66;100132.07;1708418;82;27572;-81
2021/04/10 06:44:19;;;;;;;28.85;13.95;;;;;;;9.69;49.04;100134.34;1706364;82;25378;-82
2021/04/10 06:46:47;;;;;;;27.20;14.10;;;;;;;9.78;48.86;100132.62;1682532;83;22606;-79
2021/04/10 06:49:13;;;;;;;28.12;13.75;;;;;;;10.08;48.84;100141.09;1677275;83;21220;-85
2021/04/10 06:51:39;;;;;;;30.88;14.55;;;;;;;10.29;48.52;100140.27;1714115;82;22373;-81
2021/04/10 06:54:06;;;;;;;29.48;14.00;;;;;;;10.40;48.41;100136.08;1680236;83;21213;-83
2021/04/10 06:56:36;;;;;;;32.23;14.33;;;;;;;10.58;47.68;100127.26;1704629;82;21154;-81
2021/04/10 06:59:30;;;;;;;31.52;15.18;;;;;;;10.63;47.56;100130.28;1706731;82;21250;-82
2021/04/10 07:01:59;;;;;;;26.65;14.28;;;;;;;10.72;47.30;100124.53;1705096;82;21166;-82
2021/04/10 07:04:24;;;;;;;30.52;14.63;;;;;;;10.78;47.25;100122.58;1709443;82;21291;-82
2021/04/10 07:06:50;;;;;;;30.62;14.05;;;;;;;10.91;46.98;100124.80;1711625;82;27046;-81
2021/04/10 07:09:17;;;;;;;31.23;14.63;;;;;;;10.96;46.56;100123.82;1681524;82;25314;-82
2021/04/10 07:11:43;;;;;;;28.77;14.15;;;;;;;11.18;46.71;100117.63;1704663;82;21137;-83
2021/04/10 07:14:09;;;;;;;28.27;14.47;;;;;;;11.35;45.83;100114.02;1713182;82;27766;-81
2021/04/10 07:16:38;;;;;;;26.02;13.83;;;;;;;11.24;45.35;100114.33;1708842;83;21201;-80
2021/04/10 07:19:13;;;;;;;22.98;13.18;;;;;;;11.57;45.47;100122.33;1709378;82;21202;-82
2021/04/10 07:21:43;;;;;;;29.00;14.33;;;;;;;11.84;45.39;100121.20;1709378;82;21170;-82
2021/04/10 07:24:09;;;;;;;27.25;13.55;;;;;;;12.06;44.90;100114.44;1676590;83;21547;-82
2021/04/10 07:26:57;;;;;;;27.32;13.30;;;;;;;12.23;44.44;100107.78;1682859;83;20959;-83
2021/04/10 07:29:39;;;;;;;28.25;13.88;;;;;;;12.16;43.61;100111.10;1679641;83;21226;-82
2021/04/10 07:32:34;;;;;;;29.37;14.35;;;;;;;12.41;44.00;100111.06;1709395;82;21210;-80
2021/04/10 07:35:11;;;;;;;26.80;14.13;;;;;;;12.52;43.38;100114.70;1713505;82;21630;-80
2021/04/10 07:37:50;;;;;;;28.83;13.70;;;;;;;12.69;43.61;100106.68;1710296;82;21569;-81
2021/04/10 07:40:25;;;;;;;28.65;13.43;;;;;;;12.83;43.40;100119.20;1711691;82;21178;-80
2021/04/10 07:42:55;;;;;;;28.75;13.95;;;;;;;12.90;42.62;100112.23;1708450;82;21891;-81
2021/04/10 07:45:32;;;;;;;26.20;13.25;;;;;;;13.02;42.47;100122.45;1707672;82;21243;-80
2021/04/10 07:48:14;;;;;;;30.52;12.73;;;;;;;13.13;42.30;100119.43;1702123;82;21201;-80
2021/04/10 07:50:39;;;;;;;28.05;13.62;;;;;;;13.33;43.30;100119.85;1700024;82;21215;-82
2021/04/10 07:53:30;;;;;;;29.27;13.35;;;;;;;13.34;42.06;100120.67;1709868;82;21202;-81
2021/04/10 07:56:01;;;;;;;27.40;14.03;;;;;;;13.40;42.71;100122.62;1705566;82;21260;-83
2021/04/10 07:58:34;;;;;;;25.32;13.35;;;;;;;13.51;42.37;100122.20;1711393;82;21575;-82
2021/04/10 08:01:03;;;;;;;28.83;14.28;;;;;;;13.57;41.91;100124.16;1708953;82;21136;-82
2021/04/10 08:03:48;;;;;;;29.63;14.28;;;;;;;13.65;41.39;100132.05;1706866;82;21154;-81
2021/04/10 08:06:14;;;;;;;26.95;13.88;;;;;;;13.58;40.83;100127.14;1708157;82;21217;-81
2021/04/10 08:08:56;;;;;;;27.70;13.50;;;;;;;13.60;40.67;100122.48;1697224;82;21258;-81
2021/04/10 08:11:43;;;;;;;27.75;13.40;;;;;;;13.75;41.25;100117.72;1703602;82;21249;-81
2021/04/10 08:14:13;;;;;;;;;;;;;;;13.78;40.36;100120.02;1685827;83;21191;-82
2021/04/10 08:16:46;;;;;;;23.25;13.38;;;;;;;13.77;39.86;100117.88;1706173;83;20356;-81
2021/04/10 08:19:14;;;;;;;27.45;13.65;;;;;;;13.84;40.31;100117.98;1704194;82;21122;-81
2021/04/10 08:21:50;;;;;;;27.02;13.80;;;;;;;14.02;40.53;100121.66;1679461;83;22049;-82
2021/04/10 08:24:26;;;;;;;25.50;13.62;;;;;;;14.13;40.30;100119.89;1679120;84;21199;-83
2021/04/10 08:26:55;;;;;;;25.80;14.28;;;;;;;14.08;39.46;100132.08;1691399;83;21169;-82
2021/04/10 08:29:22;;;;;;;25.32;14.35;;;;;;;14.27;39.25;100138.19;1695222;83;21203;-82
2021/04/10 08:31:49;;;;;;;27.42;14.15;;;;;;;14.48;39.17;100139.31;1688364;84;21188;-83
2021/04/10 08:34:16;;;;;;;25.40;13.55;;;;;;;14.51;38.82;100132.30;1690367;83;21254;-82
2021/04/10 08:36:44;;;;;;;27.77;14.68;;;;;;;14.55;38.51;100138.41;1715317;83;27308;-81
2021/04/10 08:39:10;;;;;;;27.52;13.95;;;;;;;14.63;38.54;100141.51;1696363;83;21209;-82
2021/04/10 08:41:38;;;;;;;27.80;15.13;;;;;;;14.76;38.54;100140.89;1696639;83;21269;-81
2021/04/10 08:44:07;;;;;;;28.12;14.13;;;;;;;14.83;37.89;100139.64;1692222;83;21215;-80
2021/04/10 08:46:34;;;;;;;28.77;14.55;;;;;;;14.86;37.77;100147.25;1676248;84;21626;-81
2021/04/10 08:49:01;;;;;;;23.92;13.70;;;;;;;14.96;37.42;100145.14;1712060;81;21207;-81
2021/04/10 08:51:30;;;;;;;22.85;12.82;;;;;;;14.99;36.94;100145.26;1687562;83;21241;-81
2021/04/10 08:53:57;;;;;;;27.22;13.30;;;;;;;15.14;36.53;100141.27;1692529;83;21241;-83
2021/04/10 08:56:27;;;;;;;25.35;13.70;;;;;;;15.33;37.02;100132.66;1691024;83;21157;-82
2021/04/10 08:59:12;;;;;;;28.75;14.00;;;;;;;15.38;36.86;100140.09;1693080;83;21251;-81
2021/04/10 09:01:41;;;;;;;24.63;13.15;;;;;;;15.49;36.39;100134.78;1695519;83;21193;-82
2021/04/10 09:04:07;;;;;;;24.52;13.93;;;;;;;15.60;36.17;100138.30;1715356;81;21466;-82
2021/04/10 09:06:47;;;;;;;28.07;14.03;;;;;;;15.65;36.41;100133.22;1689867;83;21639;-83
2021/04/10 09:09:18;;;;;;;24.60;13.80;;;;;;;15.79;36.05;100133.69;1691821;83;21241;-83
2021/04/10 09:11:46;;;;;;;25.77;13.58;;;;;;;15.81;35.62;100134.02;1690872;83;21742;-82
2021/04/10 09:14:15;;;;;;;26.95;13.28;;;;;;;15.65;34.49;100139.88;1689928;83;21690;-81
2021/04/10 09:16:50;;;;;;;22.37;12.18;;;;;;;15.57;34.43;100136.02;1624878;83;21230;-82
2021/04/10 09:19:24;;;;;;;25.40;12.80;;;;;;;15.79;34.46;100143.00;1688408;83;21163;-80
2021/04/10 09:21:55;;;;;;;25.32;12.50;;;;;;;15.99;34.60;100147.70;1688170;83;21225;-82
2021/04/10 09:24:41;;;;;;;28.85;13.32;;;;;;;16.11;34.69;100142.66;1688543;83;21966;-80
2021/04/10 09:27:24;;;;;;;30.13;13.23;;;;;;;16.17;35.22;100143.73;1700822;82;21725;-81
2021/04/10 09:30:00;;;;;;;25.48;12.33;;;;;;;16.30;34.72;100142.00;1709905;82;21110;-82
2021/04/10 09:32:42;;;;;;;25.75;12.35;;;;;;;16.46;34.35;100140.05;1713025;82;21201;-82
2021/04/10 09:35:14;;;;;;;23.62;13.38;;;;;;;16.45;33.94;100140.58;1701424;82;21205;-80
2021/04/10 09:37:54;;;;;;;23.47;12.37;;;;;;;16.39;34.26;100129.36;1708557;82;21219;-81
2021/04/10 09:40:41;;;;;;;23.27;12.28;;;;;;;16.51;34.67;100142.46;1697731;82;21218;-82
2021/04/10 09:43:09;;;;;;;23.80;12.15;;;;;;;16.58;34.60;100134.98;1703589;82;21295;-82
2021/04/10 09:45:35;;;;;;;24.15;13.32;;;;;;;16.72;34.23;100144.73;1708502;81;21698;-83
2021/04/10 09:48:19;;;;;;;26.33;13.30;;;;;;;16.79;34.10;100133.57;1681448;82;21237;-83
2021/04/10 09:50:55;;;;;;;23.62;12.63;;;;;;;16.78;33.83;100135.94;1707507;82;21500;-84
2021/04/10 09:53:26;;;;;;;23.57;12.40;;;;;;;16.93;34.26;100131.01;1708116;82;21214;-83
2021/04/10 09:56:10;;;;;;;24.95;12.75;;;;;;;17.00;34.06;100127.88;1705755;82;21264;-83
2021/04/10 09:58:47;;;;;;;24.57;13.03;;;;;;;17.17;33.97;100135.83;1704245;82;21196;-82
2021/04/10 10:01:25;;;;;;;22.82;12.78;;;;;;;17.09;33.40;100132.50;1701617;82;21205;-82
2021/04/10 10:03:52;;;;;;;23.77;13.13;;;;;;;17.10;34.04;100138.98;1709751;82;21214;-83
2021/04/10 10:06:20;;;;;;;26.25;12.93;;;;;;;17.01;33.49;100138.83;1717324;82;21230;-82
2021/04/10 10:08:46;;;;;;;24.23;12.50;;;;;;;17.17;33.45;100141.17;1707621;82;21686;-82
2021/04/10 10:11:14;;;;;;;26.05;12.93;;;;;;;17.17;32.96;100143.84;1713256;82;21115;-83
2021/04/10 10:13:43;;;;;;;22.67;12.78;;;;;;;17.25;33.46;100132.69;1707764;82;21229;-82
2021/04/10 10:16:10;;;;;;;28.90;13.93;;;;;;;17.24;32.47;100134.52;1707056;82;22362;-82
2021/04/10 10:18:43;;;;;;;25.95;13.58;;;;;;;17.09;32.73;100139.17;1681843;83;27055;-83
2021/04/10 10:21:19;;;;;;;22.13;12.33;;;;;;;17.20;32.69;100135.44;1700944;82;22287;-82
2021/04/10 10:24:00;;;;;;;21.02;12.88;;;;;;;17.13;32.03;100147.92;1710105;82;21222;-82
2021/04/10 10:26:32;;;;;;;24.45;12.65;;;;;;;17.17;32.50;100144.36;1710200;83;22353;-83
2021/04/10 10:29:03;;;;;;;25.52;12.15;;;;;;;17.45;32.95;100134.89;1684032;84;21272;-82
2021/04/10 10:31:32;;;;;;;24.92;12.45;;;;;;;17.58;32.78;100138.91;1714539;82;21625;-81
2021/04/10 10:34:16;;;;;;;22.73;12.45;;;;;;;17.83;32.76;100142.34;1703571;82;21217;-82
2021/04/10 10:36:48;;;;;;;23.10;12.90;;;;;;;18.02;32.47;100142.59;1726359;82;21208;-82
2021/04/10 10:39:29;;;;;;;20.25;12.68;;;;;;;17.99;31.95;100144.33;1686407;83;21310;-82
2021/04/10 10:41:59;;;;;;;20.68;11.78;;;;;;;17.84;30.52;100137.31;1692515;82;21243;-81
2021/04/10 10:44:25;;;;;;;23.57;12.68;;;;;;;17.73;30.41;100138.74;1723109;82;21228;-81
2021/04/10 10:47:04;;;;;;;22.87;11.95;;;;;;;17.65;30.96;100140.28;1724555;81;21487;-81
2021/04/10 10:49:29;;;;;;;23.77;12.35;;;;;;;17.73;30.48;100148.61;1713682;82;21238;-81
2021/04/10 10:51:55;;;;;;;20.97;11.97;;;;;;;17.79;30.16;100137.11;1698009;82;21648;-82
2021/04/10 10:54:36;;;;;;;19.65;11.97;;;;;;;17.94;30.52;100133.77;1743483;81;21659;-83
2021/04/10 10:57:14;;;;;;;24.77;13.25;;;;;;;18.10;30.97;100133.86;1709672;82;37759;-82
2021/04/10 10:59:41;;;;;;;21.75;12.75;;;;;;;18.24;30.39;100132.01;1718199;81;21209;-82
2021/04/10 11:02:22;;;;;;;22.90;13.43;;;;;;;18.43;29.73;100129.52;1720382;82;21185;-82
2021/04/10 11:04:48;;;;;;;19.85;12.53;;;;;;;18.11;29.26;100133.34;1708466;82;21203;-80
2021/04/10 11:07:18;;;;;;;23.15;12.33;;;;;;;18.35;29.54;100131.05;1748629;81;21092;-85
2021/04/10 11:09:48;;;;;;;19.32;11.73;;;;;;;18.38;29.55;100138.66;1713772;82;21607;-83
2021/04/10 11:12:15;;;;;;;18.30;11.40;;;;;;;18.41;29.13;100137.75;1720021;81;21613;-84
2021/04/10 11:14:46;;;;;;;22.17;12.47;;;;;;;18.52;29.15;100125.59;1727644;82;21472;-80
2021/04/10 11:17:12;;;;;;;22.77;12.03;;;;;;;18.26;28.75;100127.27;1697113;82;21681;-81
2021/04/10 11:19:46;;;;;;;20.95;11.18;;;;;;;18.28;29.04;100134.55;1694970;82;21246;-85
2021/04/10 11:22:16;;;;;;;20.45;10.82;;;;;;;18.45;29.08;100132.80;1725627;82;21208;-81
2021/04/10 11:24:50;;;;;;;19.45;10.95;;;;;;;18.56;28.91;100131.34;1727084;82;21224;-81
2021/04/10 11:27:24;;;;;;;19.75;11.45;;;;;;;18.52;29.06;100124.25;1718056;82;22293;-83
2021/04/10 11:30:06;;;;;;;19.67;10.98;;;;;;;18.40;29.39;100137.95;1715316;82;21737;-82